createdAt,value
2023-01-21T00:01:23.446Z,10.27
2023-01-21T00:03:49.638Z,10.83
2023-01-21T00:06:15.766Z,10.30
2023-01-21T00:08:42.776Z,10.03
2023-01-21T00:11:14.945Z,10.33
2023-01-21T00:13:42.789Z,11.53
2023-01-21T00:16:10.707Z,11.00
2023-01-21T00:18:36.994Z,10.50
2023-01-21T00:21:03.204Z,11.10
2023-01-21T00:23:29.332Z,11.10
2023-01-21T00:26:01.463Z,9.53
2023-01-21T00:28:30.340Z,10.37
2023-01-21T00:30:59.485Z,10.03
2023-01-21T00:33:26.692Z,9.80
2023-01-21T00:36:02.501Z,11.03
2023-01-21T00:38:29.525Z,10.70
2023-01-21T00:41:04.849Z,10.93
2023-01-21T00:43:31.520Z,11.13
2023-01-21T00:45:58.402Z,9.73
2023-01-21T00:48:24.927Z,10.37
2023-01-21T00:50:53.038Z,9.97
2023-01-21T00:53:19.160Z,11.10
2023-01-21T00:55:45.368Z,11.13
2023-01-21T00:58:11.544Z,10.33
2023-01-21T01:00:37.729Z,10.83
2023-01-21T01:03:03.958Z,10.77
2023-01-21T01:05:30.159Z,11.17
2023-01-21T01:07:56.258Z,11.13
2023-01-21T01:10:22.809Z,10.33
2023-01-21T01:12:48.939Z,9.37
2023-01-21T01:15:15.119Z,10.80
2023-01-21T01:17:41.243Z,9.93
2023-01-21T01:20:08.350Z,10.60
2023-01-21T01:22:34.702Z,10.80
2023-01-21T01:25:00.828Z,9.93
2023-01-21T01:27:29.448Z,11.53
2023-01-21T01:29:55.640Z,9.93
2023-01-21T01:32:21.908Z,10.80
2023-01-21T01:34:48.089Z,11.33
2023-01-21T01:37:14.454Z,11.83
2023-01-21T01:39:40.591Z,10.87
2023-01-21T01:42:14.898Z,11.30
2023-01-21T01:45:24.531Z,10.77
2023-01-21T01:48:00.263Z,10.43
2023-01-21T01:50:33.572Z,10.67
2023-01-21T01:53:01.464Z,10.70
2023-01-21T01:55:33.681Z,10.27
2023-01-21T01:58:07.827Z,10.30
2023-01-21T02:00:34.675Z,10.83
2023-01-21T02:03:20.006Z,10.93
2023-01-21T02:05:47.626Z,11.03
2023-01-21T02:08:14.153Z,10.47
2023-01-21T02:10:40.310Z,10.40
2023-01-21T02:13:06.628Z,10.57
2023-01-21T02:15:54.542Z,10.17
2023-01-21T02:18:35.908Z,10.33
2023-01-21T02:21:29.470Z,11.23
2023-01-21T02:24:42.415Z,9.67
2023-01-21T02:27:30.848Z,10.97
2023-01-21T02:30:30.182Z,11.57
2023-01-21T02:33:15.082Z,10.43
2023-01-21T02:36:18.443Z,11.47
2023-01-21T02:39:13.510Z,10.60
2023-01-21T02:42:11.984Z,10.17
2023-01-21T02:44:53.497Z,10.57
2023-01-21T02:47:31.055Z,9.77
2023-01-21T02:50:07.593Z,10.27
2023-01-21T02:52:36.787Z,11.00
2023-01-21T02:55:14.430Z,10.27
2023-01-21T02:57:55.522Z,10.53
2023-01-21T03:00:31.029Z,11.10
2023-01-21T03:03:02.637Z,10.17
2023-01-21T03:06:07.805Z,10.57
2023-01-21T03:08:55.512Z,10.37
2023-01-21T03:11:22.649Z,9.67
2023-01-21T03:14:17.289Z,10.43
2023-01-21T03:17:00.124Z,10.03
2023-01-21T03:20:15.988Z,10.00
2023-01-21T03:22:44.603Z,10.23
2023-01-21T03:25:14.183Z,9.97
2023-01-21T03:27:45.490Z,9.63
2023-01-21T03:30:19.628Z,9.60
2023-01-21T03:32:51.523Z,9.73
2023-01-21T03:35:39.229Z,10.17
2023-01-21T03:38:41.802Z,10.30
2023-01-21T03:41:21.677Z,9.97
2023-01-21T03:43:48.328Z,10.77
2023-01-21T03:46:24.209Z,10.97
2023-01-21T03:49:01.295Z,10.50
2023-01-21T03:51:38.416Z,11.37
2023-01-21T03:54:05.262Z,10.27
2023-01-21T03:56:31.458Z,10.87
2023-01-21T03:58:57.832Z,10.13
2023-01-21T04:01:24.606Z,10.27
2023-01-21T04:03:50.892Z,9.83
2023-01-21T04:06:20.336Z,9.77
2023-01-21T04:08:47.026Z,10.27
2023-01-21T04:11:13.469Z,10.57
2023-01-21T04:13:39.946Z,10.57
2023-01-21T04:16:06.893Z,9.87
2023-01-21T04:18:33.904Z,10.47
2023-01-21T04:21:01.325Z,10.10
2023-01-21T04:23:27.609Z,11.10
2023-01-21T04:25:53.871Z,9.70
2023-01-21T04:28:20.637Z,10.47
2023-01-21T04:30:47.748Z,11.00
2023-01-21T04:33:14.594Z,10.20
2023-01-21T04:35:41.226Z,10.50
2023-01-21T04:38:07.360Z,10.67
2023-01-21T04:40:33.823Z,11.20
2023-01-21T04:43:00.543Z,10.53
2023-01-21T04:45:26.879Z,11.87
2023-01-21T04:47:53.261Z,11.30
2023-01-21T04:50:19.706Z,11.63
2023-01-21T04:52:45.806Z,10.43
2023-01-21T04:55:11.930Z,11.33
2023-01-21T04:57:38.085Z,10.73
2023-01-21T05:00:06.784Z,11.20
2023-01-21T05:02:33.912Z,10.97
2023-01-21T05:05:00.133Z,10.97
2023-01-21T05:07:27.968Z,11.23
2023-01-21T05:09:54.706Z,10.87
2023-01-21T05:12:20.877Z,12.10
2023-01-21T05:14:47.009Z,11.03
2023-01-21T05:17:13.272Z,12.13
2023-01-21T05:19:39.396Z,11.23
2023-01-21T05:22:05.581Z,11.50
2023-01-21T05:24:31.981Z,11.13
2023-01-21T05:26:58.081Z,11.03
2023-01-21T05:29:24.746Z,10.87
2023-01-21T05:31:51.155Z,11.00
2023-01-21T05:34:17.622Z,10.00
2023-01-21T05:36:43.721Z,10.50
2023-01-21T05:39:09.902Z,11.27
2023-01-21T05:41:36.011Z,11.40
2023-01-21T05:44:02.171Z,11.30
2023-01-21T05:46:28.377Z,11.37
2023-01-21T05:48:54.642Z,11.23
2023-01-21T05:51:20.831Z,10.83
2023-01-21T05:53:46.960Z,11.67
2023-01-21T05:56:13.091Z,10.60
2023-01-21T05:58:39.208Z,10.77
2023-01-21T06:01:05.303Z,11.07
2023-01-21T06:03:31.460Z,10.87
2023-01-21T06:05:57.632Z,11.23
2023-01-21T06:08:23.798Z,10.80
2023-01-21T06:10:49.935Z,10.83
2023-01-21T06:13:16.331Z,10.93
2023-01-21T06:15:42.505Z,10.40
2023-01-21T06:18:08.634Z,10.80
2023-01-21T06:20:35.871Z,11.10
2023-01-21T06:23:02.856Z,11.23
2023-01-21T06:25:30.973Z,11.30
2023-01-21T06:27:57.921Z,11.30
2023-01-21T06:30:25.005Z,10.90
2023-01-21T06:32:51.968Z,11.37
2023-01-21T06:35:18.520Z,11.33
2023-01-21T06:37:45.625Z,11.97
2023-01-21T06:40:13.213Z,11.37
2023-01-21T06:42:39.467Z,10.40
2023-01-21T06:45:06.515Z,10.47
2023-01-21T06:47:32.672Z,10.53
2023-01-21T06:49:58.811Z,10.90
2023-01-21T06:52:24.941Z,11.00
2023-01-21T06:54:51.076Z,12.10
2023-01-21T06:57:17.184Z,11.03
2023-01-21T06:59:43.326Z,11.40
2023-01-21T07:02:12.315Z,11.73
2023-01-21T07:04:38.639Z,11.43
2023-01-21T07:07:04.777Z,11.17
2023-01-21T07:09:30.886Z,12.60
2023-01-21T07:11:57.804Z,12.53
2023-01-21T07:14:23.993Z,11.93
2023-01-21T07:16:50.078Z,12.90
2023-01-21T07:19:16.183Z,12.33
2023-01-21T07:21:42.281Z,12.60
2023-01-21T07:24:08.676Z,12.93
2023-01-21T07:26:37.218Z,13.73
2023-01-21T07:29:06.204Z,14.10
2023-01-21T07:31:33.500Z,14.83
2023-01-21T07:34:00.202Z,13.47
2023-01-21T07:36:26.555Z,13.80
2023-01-21T07:38:53.749Z,13.43
2023-01-21T07:41:20.288Z,13.13
2023-01-21T07:43:47.822Z,12.63
2023-01-21T07:46:20.065Z,12.40
2023-01-21T07:48:51.087Z,12.73
2023-01-21T07:51:21.353Z,12.77
2023-01-21T07:53:47.592Z,18.83
2023-01-21T07:56:14.212Z,18.73
2023-01-21T07:58:40.307Z,19.90
2023-01-21T08:01:08.757Z,19.53
2023-01-21T08:03:36.418Z,21.33
2023-01-21T08:06:04.692Z,20.87
2023-01-21T08:08:31.633Z,23.73
2023-01-21T08:10:57.846Z,24.20
2023-01-21T08:13:24.360Z,21.63
2023-01-21T08:15:52.662Z,23.83
2023-01-21T08:18:21.315Z,20.83
2023-01-21T08:20:48.563Z,22.23
2023-01-21T08:23:14.743Z,22.63
2023-01-21T08:25:41.066Z,22.93
2023-01-21T08:28:07.418Z,19.57
2023-01-21T08:30:33.590Z,18.23
2023-01-21T08:32:59.728Z,18.17
2023-01-21T08:35:25.883Z,18.00
2023-01-21T08:37:56.596Z,17.47
2023-01-21T08:40:25.607Z,15.00
2023-01-21T08:42:57.693Z,17.53
2023-01-21T08:45:23.871Z,16.53
2023-01-21T08:47:50.001Z,16.13
2023-01-21T08:50:16.792Z,18.07
2023-01-21T08:52:50.072Z,18.90
2023-01-21T08:55:16.563Z,18.03
2023-01-21T08:57:42.894Z,15.90
2023-01-21T09:00:10.016Z,16.80
2023-01-21T09:02:36.134Z,15.63
2023-01-21T09:05:02.375Z,16.57
2023-01-21T09:07:28.564Z,15.80
2023-01-21T09:09:54.990Z,16.03
2023-01-21T09:12:21.117Z,16.17
2023-01-21T09:14:47.357Z,18.27
2023-01-21T09:17:13.484Z,16.83
2023-01-21T09:19:39.652Z,16.00
2023-01-21T09:22:05.766Z,15.80
2023-01-21T09:24:32.527Z,14.93
2023-01-21T09:26:58.619Z,15.43
2023-01-21T09:29:24.762Z,16.67
2023-01-21T09:31:50.967Z,16.33
2023-01-21T09:34:17.195Z,15.17
2023-01-21T09:36:43.300Z,16.87
2023-01-21T09:39:09.672Z,16.37
2023-01-21T09:41:38.720Z,16.03
2023-01-21T09:44:34.389Z,17.13
2023-01-21T09:47:30.205Z,15.33
2023-01-21T09:50:07.087Z,15.63
2023-01-21T09:52:40.864Z,17.87
2023-01-21T09:55:21.665Z,14.37
2023-01-21T09:58:35.342Z,15.80
2023-01-21T10:01:16.544Z,15.47
2023-01-21T10:04:01.121Z,17.00
2023-01-21T10:06:39.610Z,15.43
2023-01-21T10:09:34.251Z,15.53
2023-01-21T10:12:36.315Z,14.40
2023-01-21T10:15:20.351Z,15.97
2023-01-21T10:18:14.455Z,15.77
2023-01-21T10:20:52.369Z,15.47
2023-01-21T10:23:26.735Z,16.80
2023-01-21T10:26:00.782Z,16.53
2023-01-21T10:28:32.030Z,14.83
2023-01-21T10:31:07.781Z,14.17
2023-01-21T10:33:34.085Z,14.57
2023-01-21T10:36:34.270Z,15.80
2023-01-21T10:39:26.268Z,14.13
2023-01-21T10:42:41.429Z,14.97
2023-01-21T10:45:35.756Z,12.30
2023-01-21T10:48:39.322Z,15.40
2023-01-21T10:51:45.203Z,14.43
2023-01-21T10:54:22.740Z,15.00
2023-01-21T10:57:35.196Z,14.10
2023-01-21T11:00:04.798Z,12.60
2023-01-21T11:02:33.498Z,14.67
2023-01-21T11:05:04.596Z,12.97
2023-01-21T11:07:39.115Z,13.80
2023-01-21T11:10:06.642Z,14.23
2023-01-21T11:12:33.180Z,14.50
2023-01-21T11:15:14.053Z,12.17
2023-01-21T11:17:44.508Z,13.33
2023-01-21T11:20:40.177Z,13.10
2023-01-21T11:23:31.583Z,14.63
2023-01-21T11:26:20.357Z,14.03
2023-01-21T11:28:46.530Z,12.73
2023-01-21T11:31:26.256Z,12.07
2023-01-21T11:33:54.865Z,11.97
2023-01-21T11:36:21.221Z,13.77
2023-01-21T11:39:08.360Z,12.63
2023-01-21T11:41:35.518Z,12.40
2023-01-21T11:44:17.068Z,11.77
2023-01-21T11:46:43.922Z,12.43
2023-01-21T11:49:09.939Z,11.50
2023-01-21T11:51:39.997Z,11.27
2023-01-21T11:54:17.770Z,10.13
2023-01-21T11:56:58.307Z,14.43
2023-01-21T11:59:34.929Z,12.50
2023-01-21T12:02:21.328Z,14.40
2023-01-21T12:04:56.800Z,12.03
2023-01-21T12:07:33.101Z,11.30
2023-01-21T12:10:40.765Z,11.03
2023-01-21T12:13:21.704Z,9.97
2023-01-21T12:16:08.767Z,9.60
2023-01-21T12:19:07.286Z,10.60
2023-01-21T12:21:59.992Z,10.73
2023-01-21T12:25:01.809Z,16.10
2023-01-21T12:28:11.109Z,11.23
2023-01-21T12:31:20.783Z,11.07
2023-01-21T12:34:03.816Z,10.00
2023-01-21T12:36:39.863Z,13.30
2023-01-21T12:39:20.097Z,10.83
2023-01-21T12:41:58.104Z,10.17
2023-01-21T12:44:40.637Z,9.90
2023-01-21T12:47:20.895Z,11.37
2023-01-21T12:49:51.326Z,10.93
2023-01-21T12:52:53.393Z,10.07
2023-01-21T12:55:49.311Z,11.13
2023-01-21T12:58:20.177Z,13.73
2023-01-21T13:00:51.526Z,9.77
2023-01-21T13:03:32.030Z,10.00
2023-01-21T13:06:04.599Z,9.70
2023-01-21T13:08:55.142Z,9.50
2023-01-21T13:11:32.362Z,10.37
2023-01-21T13:14:07.727Z,10.03
2023-01-21T13:16:50.790Z,9.57
2023-01-21T13:19:16.952Z,10.17
2023-01-21T13:22:20.756Z,10.47
2023-01-21T13:25:24.403Z,10.17
2023-01-21T13:27:59.650Z,9.90
2023-01-21T13:30:45.372Z,9.70
2023-01-21T13:33:41.817Z,9.13
2023-01-21T13:36:32.730Z,9.40
2023-01-21T13:39:16.948Z,9.77
2023-01-21T13:42:15.223Z,9.83
2023-01-21T13:44:59.350Z,9.33
2023-01-21T13:48:23.109Z,10.17
2023-01-21T13:51:19.808Z,11.10
2023-01-21T13:54:18.801Z,11.47
2023-01-21T13:56:59.715Z,11.20
2023-01-21T14:00:08.210Z,12.00
2023-01-21T14:03:08.653Z,11.37
2023-01-21T14:05:57.420Z,11.93
2023-01-21T14:08:46.719Z,12.17
2023-01-21T14:11:24.059Z,11.03
2023-01-21T14:14:20.367Z,10.57
2023-01-21T14:17:01.825Z,10.87
2023-01-21T14:19:54.088Z,11.60
2023-01-21T14:22:55.052Z,10.53
2023-01-21T14:25:57.506Z,10.83
2023-01-21T14:28:37.031Z,11.23
2023-01-21T14:31:21.143Z,10.40
2023-01-21T14:34:09.073Z,9.73
2023-01-21T14:36:48.752Z,12.53
2023-01-21T14:39:57.237Z,10.57
2023-01-21T14:42:50.872Z,13.00
2023-01-21T14:45:21.476Z,12.67
2023-01-21T14:47:56.967Z,12.93
2023-01-21T14:50:41.913Z,15.23
2023-01-21T14:53:21.504Z,17.93
2023-01-21T14:56:26.950Z,15.13
2023-01-21T14:59:02.697Z,14.00
2023-01-21T15:01:46.257Z,11.87
2023-01-21T15:04:31.791Z,14.87
2023-01-21T15:07:05.864Z,12.53
2023-01-21T15:09:42.861Z,11.07
2023-01-21T15:12:26.446Z,12.53
2023-01-21T15:15:01.845Z,15.23
2023-01-21T15:17:44.259Z,19.80
2023-01-21T15:20:59.866Z,18.30
2023-01-21T15:23:28.724Z,12.50
2023-01-21T15:26:31.870Z,10.53
2023-01-21T15:29:36.163Z,8.70
2023-01-21T15:32:28.329Z,9.47
2023-01-21T15:35:23.375Z,9.33
2023-01-21T15:38:00.854Z,9.27
2023-01-21T15:40:36.757Z,8.83
2023-01-21T15:43:23.806Z,8.57
2023-01-21T15:46:29.267Z,9.47
2023-01-21T15:49:19.525Z,9.13
2023-01-21T15:52:31.154Z,8.90
2023-01-21T15:55:20.644Z,10.10
2023-01-21T15:58:22.304Z,10.57
2023-01-21T16:01:32.247Z,8.60
2023-01-21T16:04:22.824Z,7.77
2023-01-21T16:07:18.743Z,9.03
2023-01-21T16:10:42.487Z,8.70
2023-01-21T16:13:27.101Z,8.50
2023-01-21T16:16:23.234Z,8.97
2023-01-21T16:19:04.773Z,8.67
2023-01-21T16:21:39.406Z,9.70
2023-01-21T16:24:12.285Z,8.93
2023-01-21T16:26:38.476Z,9.47
2023-01-21T16:29:14.284Z,8.83
2023-01-21T16:31:58.976Z,9.60
2023-01-21T16:34:30.830Z,9.27
2023-01-21T16:36:57.516Z,9.23
2023-01-21T16:39:24.791Z,10.03
2023-01-21T16:42:04.884Z,9.43
2023-01-21T16:44:35.048Z,11.03
2023-01-21T16:47:02.578Z,9.90
2023-01-21T16:49:28.855Z,10.50
2023-01-21T16:51:59.227Z,10.87
2023-01-21T16:54:29.311Z,11.07
2023-01-21T16:57:04.639Z,11.10
2023-01-21T16:59:40.814Z,11.13
2023-01-21T17:02:32.187Z,10.67
2023-01-21T17:05:03.746Z,12.57
2023-01-21T17:07:59.809Z,12.27
2023-01-21T17:10:38.406Z,10.70
2023-01-21T17:13:14.609Z,11.97
2023-01-21T17:15:43.495Z,11.33
2023-01-21T17:18:34.219Z,14.40
2023-01-21T17:21:14.640Z,15.40
2023-01-21T17:23:53.127Z,18.30
2023-01-21T17:26:28.661Z,14.97
2023-01-21T17:29:06.876Z,13.67
2023-01-21T17:32:21.295Z,13.30
2023-01-21T17:35:14.542Z,12.43
2023-01-21T17:37:50.328Z,12.57
2023-01-21T17:40:57.884Z,11.20
2023-01-21T17:43:25.162Z,13.13
2023-01-21T17:45:54.167Z,13.53
2023-01-21T17:48:34.506Z,12.30
2023-01-21T17:51:18.355Z,13.03
2023-01-21T17:54:06.074Z,12.50
2023-01-21T17:56:53.844Z,12.03
2023-01-21T17:59:37.777Z,12.00
2023-01-21T18:02:14.132Z,12.33
2023-01-21T18:04:41.227Z,11.30
2023-01-21T18:07:29.034Z,11.83
2023-01-21T18:10:04.155Z,12.13
2023-01-21T18:12:30.310Z,12.07
2023-01-21T18:14:57.705Z,11.93
2023-01-21T18:17:24.768Z,12.13
2023-01-21T18:19:51.138Z,13.33
2023-01-21T18:22:28.229Z,14.97
2023-01-21T18:24:55.262Z,10.63
2023-01-21T18:27:25.683Z,11.67
2023-01-21T18:29:53.031Z,12.27
2023-01-21T18:32:19.289Z,12.43
2023-01-21T18:34:46.362Z,12.47
2023-01-21T18:37:18.832Z,12.00
2023-01-21T18:39:45.579Z,12.47
2023-01-21T18:42:15.361Z,13.37
2023-01-21T18:44:41.961Z,12.73
2023-01-21T18:47:14.817Z,13.07
2023-01-21T18:49:41.712Z,11.77
2023-01-21T18:52:15.700Z,12.30
2023-01-21T18:54:41.974Z,12.50
2023-01-21T18:57:17.204Z,12.80
2023-01-21T18:59:43.590Z,13.50
2023-01-21T19:02:20.057Z,13.67
2023-01-21T19:04:46.949Z,17.47
2023-01-21T19:07:19.288Z,13.77
2023-01-21T19:09:46.606Z,15.27
2023-01-21T19:12:16.083Z,14.00
2023-01-21T19:14:42.282Z,13.60
2023-01-21T19:17:25.536Z,15.57
2023-01-21T19:19:53.169Z,15.93
2023-01-21T19:22:19.560Z,14.60
2023-01-21T19:24:46.641Z,14.73
2023-01-21T19:27:28.349Z,14.73
2023-01-21T19:29:54.518Z,14.17
2023-01-21T19:32:20.672Z,14.23
2023-01-21T19:34:46.817Z,13.50
2023-01-21T19:37:16.275Z,16.17
2023-01-21T19:39:42.385Z,15.67
2023-01-21T19:42:14.406Z,15.13
2023-01-21T19:44:41.799Z,13.63
2023-01-21T19:47:26.850Z,13.20
2023-01-21T19:49:52.985Z,14.20
2023-01-21T19:52:19.090Z,14.03
2023-01-21T19:54:45.375Z,15.10
2023-01-21T19:57:15.010Z,14.23
2023-01-21T19:59:43.984Z,14.73
2023-01-21T20:02:13.219Z,13.57
2023-01-21T20:04:39.382Z,14.90
2023-01-21T20:07:06.389Z,13.83
2023-01-21T20:09:32.619Z,13.47
2023-01-21T20:11:58.786Z,14.77
2023-01-21T20:14:25.088Z,14.87
2023-01-21T20:16:53.894Z,14.23
2023-01-21T20:19:21.876Z,15.33
2023-01-21T20:21:59.897Z,15.17
2023-01-21T20:24:29.263Z,14.53
2023-01-21T20:26:55.401Z,14.40
2023-01-21T20:29:21.495Z,15.17
2023-01-21T20:31:47.684Z,14.57
2023-01-21T20:34:13.829Z,14.93
2023-01-21T20:36:43.444Z,15.10
2023-01-21T20:39:12.313Z,15.33
2023-01-21T20:41:40.080Z,14.27
2023-01-21T20:44:06.721Z,15.50
2023-01-21T20:46:33.167Z,15.40
2023-01-21T20:49:00.683Z,14.73
2023-01-21T20:51:27.078Z,15.07
2023-01-21T20:53:53.259Z,15.23
2023-01-21T20:56:26.310Z,15.53
2023-01-21T20:58:52.799Z,14.37
2023-01-21T21:01:21.833Z,15.00
2023-01-21T21:03:49.096Z,15.40
2023-01-21T21:06:21.968Z,16.70
2023-01-21T21:08:49.253Z,13.83
2023-01-21T21:11:17.079Z,16.03
2023-01-21T21:13:46.165Z,14.80
2023-01-21T21:16:29.076Z,15.67
2023-01-21T21:18:55.789Z,15.80
2023-01-21T21:21:23.823Z,15.73
2023-01-21T21:23:51.443Z,15.83
2023-01-21T21:26:28.316Z,16.53
2023-01-21T21:28:56.708Z,16.30
2023-01-21T21:31:24.373Z,16.30
2023-01-21T21:33:50.819Z,15.30
2023-01-21T21:36:21.080Z,16.43
2023-01-21T21:38:48.136Z,15.23
2023-01-21T21:41:37.087Z,15.87
2023-01-21T21:44:05.178Z,15.80
2023-01-21T21:46:50.152Z,15.03
2023-01-21T21:49:18.877Z,16.40
2023-01-21T21:51:45.949Z,17.53
2023-01-21T21:54:15.341Z,16.73
2023-01-21T21:56:42.626Z,16.63
2023-01-21T21:59:10.924Z,16.40
2023-01-21T22:01:37.131Z,15.97
2023-01-21T22:04:03.908Z,16.33
2023-01-21T22:06:31.776Z,15.90
2023-01-21T22:08:58.978Z,15.70
2023-01-21T22:11:27.679Z,15.60
2023-01-21T22:13:55.439Z,15.80
2023-01-21T22:16:27.348Z,15.43
2023-01-21T22:18:55.957Z,15.50
2023-01-21T22:21:28.916Z,14.73
2023-01-21T22:23:55.528Z,14.97
2023-01-21T22:26:25.283Z,15.23
2023-01-21T22:28:52.243Z,15.43
2023-01-21T22:31:28.654Z,15.60
2023-01-21T22:33:56.470Z,14.03
2023-01-21T22:36:25.736Z,14.70
2023-01-21T22:38:52.740Z,14.33
2023-01-21T22:41:21.648Z,12.80
2023-01-21T22:43:49.009Z,13.60
2023-01-21T22:46:19.475Z,14.10
2023-01-21T22:48:46.098Z,13.57
2023-01-21T22:51:14.886Z,13.93
2023-01-21T22:53:42.910Z,14.67
2023-01-21T22:56:12.218Z,16.97
2023-01-21T22:58:38.340Z,15.67
2023-01-21T23:01:05.260Z,14.90
2023-01-21T23:03:31.781Z,15.33
2023-01-21T23:06:07.752Z,14.50
2023-01-21T23:08:36.642Z,14.63
2023-01-21T23:11:06.376Z,15.03
2023-01-21T23:13:34.068Z,15.73
2023-01-21T23:16:01.034Z,14.90
2023-01-21T23:18:28.897Z,15.00
2023-01-21T23:20:55.749Z,15.00
2023-01-21T23:23:23.117Z,15.83
2023-01-21T23:25:49.454Z,15.17
2023-01-21T23:28:15.880Z,14.93
2023-01-21T23:30:42.762Z,14.23
2023-01-21T23:33:11.295Z,15.57
2023-01-21T23:35:37.413Z,15.53
2023-01-21T23:38:03.560Z,16.03
2023-01-21T23:40:29.692Z,15.40
2023-01-21T23:42:55.792Z,15.73
2023-01-21T23:45:21.928Z,15.97
2023-01-21T23:47:48.081Z,15.13
2023-01-21T23:50:14.450Z,14.60
2023-01-21T23:52:40.668Z,16.10
2023-01-21T23:55:09.734Z,14.67
2023-01-21T23:57:35.959Z,16.17
